Lynn, MA (01902)

7:28 PM EST on January 30, 2015 (GMT -0500)
Buchanan Circle | Change Station
CLOSE
Current Station
Personal Weather Station
Location: Lynn, MA
Elevation: 108 ft
Nearby Weather Stations

Elev 108 ft 42.49 °N, 70.94 °W | Updated 2 minutes ago

Snow
Snow
29.9 °F
Feels Like 30 °F
N
1.0
Wind Variable Wind from NW
Gusts 4.0 mph

Today
High -- | Low -- °F
--% Chance of Precip.
Yesterday
High -- | Low -- °F
Precip. -- in
6:59 AM 4:54 PM
Waxing Gibbous, 86% visible
Pressure 29.72 in
Visibility 4.0 miles
Clouds Few 1100 ft
Scattered Clouds 1800 ft
Overcast 3300 ft
Windchill 30 °F
Dew Point 28 °F
Humidity 93%
Rainfall 0.07 in
Snow Depth Not available.
UV 0.0 out of 12
Pollen .10 out of 12
Air Quality Not available.
Flu Activity Not available.
SPECI KBVY 310013Z 32016G24KT 4SM -SN FEW011 SCT018 OVC033 M02/M05 A2972 RMK AO2 P0001 T10171050

More Conditions Fewer Conditions

Pressure 29.72 in
Visibility 4.0 miles
Clouds Few 1100 ft
Scattered Clouds 1800 ft
Overcast 3300 ft
Windchill 30 °F
Dew Point 28 °F
Humidity 93%
Rainfall 0.07 in
Snow Depth Not available.
UV 0.0 out of 12
Pollen .10 out of 12
Air Quality Not available.
Flu Activity Not available.
SPECI KBVY 310013Z 32016G24KT 4SM -SN FEW011 SCT018 OVC033 M02/M05 A2972 RMK AO2 P0001 T10171050

More Conditions Fewer Conditions

10-Day Weather Forecast

Almanac

Astronomy

Jan. 30, 2015 Rise Set
Actual Time
Civil Twilight
Nautical Twilight
Astronomical Twilight
Moon
Length of Visible Light
Length of Day
Tomorrow will be .
, % of the Moon is Illuminated

Today's Extremes

State Highs State Lows

Community

WunderPhotos

Upload Photos

1,791,941 photos uploaded!

WunderBlogs® & News

Nearby

Air Quality

  Air Quality AQ Index Pollutant
Not available.

Snow Depth

Station Depth Elevation

Earthquake Activity

City Distance Mag. Time & Date
Minimum magnitude displayed is 2.5.

Coastal Water Temperatures

Place Temperature

Nearby Weather Stations